SBFZ/FOR METAR and TAF weather

Enter ICAO airport designator
Station Type Date Time Source
SBFZ METAR 2020/02/19 15:00 UTC NOAA

SBFZ 191500Z 11010KT 9999 BKN019 30/25 Q1010


Station Type Date Time Source
SBFZ Decoded METAR 2020/02/19 15:00 UTC NOAA

Fortaleza / pinto Martins , Brazil (SBFZ) 03-47S 038-32W 25M
Feb 19, 2020 - 10:00 AM EST / 2020.02.19 1500 UTC
Wind: from the ESE (110 degrees) at 12 MPH (10 KT):0
Visibility: greater than 7 mile(s):0
Sky conditions: mostly cloudy
Temperature: 86 F (30 C)
Heat index: 96.8 F (36.0 C):1
Dew Point: 77 F (25 C)
Relative Humidity: 74%
Pressure (altimeter): 29.83 in. Hg (1010 hPa)
ob: SBFZ 191500Z 11010KT 9999 BKN019 30/25 Q1010
cycle: 15

Station Type Date Time Source
SBFZ TAF 2020/02/19 12:57 UTC NOAA

TAF TAF SBFZ 191000Z 1912/2012 12005KT 4000 RA BKN015 TX29/1916Z TN26/2008Z
BECMG 1914/1916 06013KT 8000 SHRA SCT017 FEW025TCU
BECMG 1917/1919 08005KT 9999 NSW SCT023
BECMG 2000/2002 10005KT SCT017
RMK PAZ

Example: see airport list